Erwinna, Pennsylvania
Current Conditions -  °F | °C
As of 8:54 AM on Wednesday 28 Jan 2015 (Local Time) from KDYL Reporting Station
Clear Clear  
Wind Chill:   Ceiling: Unl
Heat Index: 18°   Visibility: 10mi
Dew Point:   Wind: 16mph
Humidity: 50%   Direction: 330°NNW
Pressure: 30.08"   Gusts: 24mph
Location:  40.5°N, 75.07°W
Report Text: KDYL 281354Z AUTO 33014G21KT 10SM CLR M08/M17 A3008 RMK AO2 SLP199 T10781167
Loading
Personal Weather Stations






























Interactive Weather Map New forecast layout! Learn more

10-Day Weather Forecast

Advertisements
Track Severe Weather on mobile